CheckWX is a tool to help pilots better visualize weather data.  It is not intended as a substitute for an official pre-flight weather briefing.

19:28:50 UTC

LLBG TAF
Ben Gurion International Airport
Tel Aviv, Israel
TAF LLBG 281701Z 2818/2918 19008KT 9999 SCT030 PROB40 2821/2910 26015G25KT 5000 TSRA FEW025CB BKN030 FM291000 28010KT 9999 SCT030 PROB40 2910/2918 7000 -RA BKN025 TX17/2911Z TN10/2904Z

Jan-28@
18:00 UTC

Jan-28 @ 18:00 UTC

Jan-29@
10:00 UTC

Jan-29 @ 10:00 UTC

TAF LLBG 281701Z 2818/2918 19008KT 9999 SCT030
Wind
  • 190° at 8 KTS
Cloud Levels
  • Scattered at 3,000' AGL

Jan-28@
21:00 UTC

Jan-28 @ 21:00 UTC

Jan-29@
10:00 UTC

Jan-29 @ 10:00 UTC

PROB40 2821/2910 26015G25KT 5000 TSRA FEW025CB BKN030

Probable - 40% Likelihood

Probable - 40% Likelihood during this time.

Wind
  • 260° at 15 KTS
  • {Gusting to 25 KTS
Conditions
Thunderstorm, Rain
Cloud Levels
  • Few at 2,500' AGL
  • Broken at 3,000' AGL

Jan-29@
10:00 UTC

Jan-29 @ 10:00 UTC

Jan-29@
18:00 UTC

Jan-29 @ 18:00 UTC

FM291000 28010KT 9999 SCT030

From

From Standard forecast or significant change

Wind
  • 280° at 10 KTS
Cloud Levels
  • Scattered at 3,000' AGL

Jan-29@
10:00 UTC

Jan-29 @ 10:00 UTC

Jan-29@
18:00 UTC

Jan-29 @ 18:00 UTC

PROB40 2910/2918 7000 -RA BKN025 TX17/2911Z TN10/2904Z

Probable - 40% Likelihood

Probable - 40% Likelihood during this time.

Conditions
Light Rain
Cloud Levels
  • Broken at 2,500' AGL